createdAt,value
2023-03-24T00:02:54.401Z,98.09
2023-03-24T00:06:57.219Z,97.88
2023-03-24T00:11:01.688Z,97.51
2023-03-24T00:15:04.688Z,97.51
2023-03-24T00:19:09.260Z,98.54
2023-03-24T00:23:12.345Z,97.02
2023-03-24T00:27:15.600Z,97.49
2023-03-24T00:31:19.103Z,97.66
2023-03-24T00:35:23.370Z,97.62
2023-03-24T00:39:26.077Z,97.78
2023-03-24T00:43:29.679Z,98.71
2023-03-24T00:47:36.719Z,99.75
2023-03-24T00:51:41.990Z,97.00
2023-03-24T00:55:46.106Z,98.12
2023-03-24T00:59:49.190Z,97.81
2023-03-24T01:03:52.262Z,98.90
2023-03-24T01:07:57.331Z,99.13
2023-03-24T01:12:00.094Z,98.45
2023-03-24T01:16:03.200Z,99.03
2023-03-24T01:20:10.793Z,98.04
2023-03-24T01:24:15.242Z,98.13
2023-03-24T01:28:21.696Z,97.31
2023-03-24T01:32:24.410Z,98.39
2023-03-24T01:36:27.316Z,98.81
2023-03-24T01:40:33.553Z,99.58
2023-03-24T01:44:38.543Z,99.51
2023-03-24T01:48:44.240Z,99.61
2023-03-24T01:52:46.981Z,99.25
2023-03-24T01:56:53.658Z,99.28
2023-03-24T02:00:58.060Z,100.00
2023-03-24T02:05:03.650Z,98.67
2023-03-24T02:09:06.474Z,98.27
2023-03-24T02:13:11.833Z,99.94
2023-03-24T02:17:37.373Z,99.77
2023-03-24T02:21:58.721Z,100.00
2023-03-24T02:26:38.287Z,99.60
2023-03-24T02:31:04.622Z,98.92
2023-03-24T02:35:35.799Z,98.79
2023-03-24T02:40:15.430Z,96.85
2023-03-24T02:44:21.547Z,96.08
2023-03-24T02:48:29.442Z,96.19
2023-03-24T02:52:36.661Z,96.83
2023-03-24T02:56:44.990Z,96.52
2023-03-24T03:00:52.258Z,96.57
2023-03-24T03:04:57.404Z,96.77
2023-03-24T03:09:05.285Z,96.62
2023-03-24T03:13:12.468Z,96.43
2023-03-24T03:17:19.400Z,96.65
2023-03-24T03:21:25.514Z,96.39
2023-03-24T03:25:31.181Z,95.45
2023-03-24T03:29:38.795Z,95.55
2023-03-24T03:33:44.833Z,97.05
2023-03-24T03:37:51.714Z,96.67
2023-03-24T03:41:54.623Z,96.70
2023-03-24T03:45:59.582Z,96.66
2023-03-24T03:50:02.750Z,95.90
2023-03-24T03:54:09.098Z,97.73
2023-03-24T03:58:12.688Z,98.00
2023-03-24T04:02:29.466Z,97.59
2023-03-24T04:06:39.344Z,97.35
2023-03-24T04:10:48.064Z,98.10
2023-03-24T04:15:09.682Z,97.44
2023-03-24T04:19:28.463Z,96.54
2023-03-24T04:23:39.937Z,96.97
2023-03-24T04:27:47.732Z,97.37
2023-03-24T04:31:54.306Z,97.02
2023-03-24T04:36:06.618Z,97.74
2023-03-24T04:40:11.923Z,98.12
2023-03-24T04:44:17.760Z,98.31
2023-03-24T04:48:21.108Z,97.53
2023-03-24T04:52:27.967Z,97.83
2023-03-24T04:56:36.546Z,97.45
2023-03-24T05:00:39.719Z,97.82
2023-03-24T05:04:42.400Z,97.33
2023-03-24T05:08:46.964Z,97.66
2023-03-24T05:12:49.756Z,97.75
2023-03-24T05:16:52.691Z,97.67
2023-03-24T05:20:55.697Z,97.36
2023-03-24T05:24:59.793Z,97.52
2023-03-24T05:29:03.396Z,97.22
2023-03-24T05:33:06.395Z,97.75
2023-03-24T05:37:12.159Z,97.18
2023-03-24T05:41:17.076Z,97.75
2023-03-24T05:45:20.399Z,97.26
2023-03-24T05:49:23.180Z,96.97
2023-03-24T05:53:26.289Z,97.85
2023-03-24T05:57:31.230Z,97.91
2023-03-24T06:01:34.377Z,98.13
2023-03-24T06:05:37.216Z,97.97
2023-03-24T06:09:42.522Z,97.84
2023-03-24T06:13:47.051Z,98.20
2023-03-24T06:17:50.319Z,97.80
2023-03-24T06:21:53.252Z,97.58
2023-03-24T06:25:58.381Z,96.91
2023-03-24T06:30:02.985Z,97.22
2023-03-24T06:34:06.794Z,97.33
2023-03-24T06:38:09.980Z,97.53
2023-03-24T06:42:13.186Z,97.66
2023-03-24T06:46:17.322Z,97.16
2023-03-24T06:50:20.208Z,97.13
2023-03-24T06:54:23.405Z,96.77
2023-03-24T06:58:26.180Z,96.97
2023-03-24T07:02:35.487Z,95.79
2023-03-24T07:06:49.916Z,96.25
2023-03-24T07:10:59.537Z,96.66
2023-03-24T07:15:04.445Z,96.61
2023-03-24T07:19:08.897Z,96.42
2023-03-24T07:23:11.744Z,96.19
2023-03-24T07:27:14.529Z,95.84
2023-03-24T07:31:17.249Z,96.29
2023-03-24T07:35:22.425Z,95.45
2023-03-24T07:39:25.315Z,94.88
2023-03-24T07:43:28.398Z,93.91
2023-03-24T07:47:31.693Z,94.62
2023-03-24T07:51:38.528Z,94.59
2023-03-24T07:55:42.905Z,95.34
2023-03-24T07:59:45.812Z,95.52
2023-03-24T08:03:49.544Z,95.67
2023-03-24T08:07:54.891Z,95.40
2023-03-24T08:12:00.352Z,94.88
2023-03-24T08:16:08.288Z,94.21
2023-03-24T08:20:14.796Z,93.91
2023-03-24T08:24:19.944Z,94.87
2023-03-24T08:28:22.790Z,96.40
2023-03-24T08:32:25.711Z,97.79
2023-03-24T08:36:29.718Z,94.90
2023-03-24T08:40:34.630Z,96.06
2023-03-24T08:44:37.512Z,96.84
2023-03-24T08:48:41.223Z,96.53
2023-03-24T08:52:48.094Z,97.42
2023-03-24T08:56:52.396Z,97.82
2023-03-24T09:00:55.292Z,98.09
2023-03-24T09:04:58.342Z,97.67
2023-03-24T09:09:01.123Z,97.60
2023-03-24T09:13:05.533Z,97.38
2023-03-24T09:17:08.814Z,97.56
2023-03-24T09:21:11.996Z,97.08
2023-03-24T09:25:17.316Z,96.25
2023-03-24T09:29:21.772Z,96.10
2023-03-24T09:33:25.413Z,96.51
2023-03-24T09:37:30.142Z,96.36
2023-03-24T09:41:34.523Z,96.45
2023-03-24T09:45:43.394Z,96.09
2023-03-24T09:49:50.214Z,95.20
2023-03-24T09:53:59.418Z,95.45
2023-03-24T09:58:05.327Z,95.10
2023-03-24T10:02:14.150Z,93.82
2023-03-24T10:06:23.194Z,95.39
2023-03-24T10:10:33.087Z,93.23
2023-03-24T10:14:46.212Z,91.61
2023-03-24T10:18:53.969Z,90.65
2023-03-24T10:23:02.093Z,92.59
2023-03-24T10:27:08.211Z,90.90
2023-03-24T10:31:12.475Z,92.34
2023-03-24T10:35:24.258Z,92.42
2023-03-24T10:39:38.081Z,91.15
2023-03-24T10:43:48.575Z,90.22
2023-03-24T10:47:52.343Z,91.04
2023-03-24T10:52:03.740Z,91.56
2023-03-24T10:56:07.366Z,91.03
2023-03-24T11:00:19.292Z,88.74
2023-03-24T11:04:22.621Z,88.72
2023-03-24T11:08:30.438Z,90.56
2023-03-24T11:12:34.844Z,82.98
2023-03-24T11:16:39.833Z,84.09
2023-03-24T11:20:45.440Z,81.98
2023-03-24T11:24:52.715Z,79.85
2023-03-24T11:28:58.269Z,80.53
2023-03-24T11:33:01.879Z,78.99
2023-03-24T11:37:06.935Z,76.60
2023-03-24T11:41:21.349Z,77.97
2023-03-24T11:45:27.990Z,75.89
2023-03-24T11:49:33.012Z,79.03
2023-03-24T11:53:39.940Z,73.33
2023-03-24T11:57:50.126Z,70.85
2023-03-24T12:01:59.526Z,71.90
2023-03-24T12:06:04.735Z,76.20
2023-03-24T12:10:15.089Z,73.07
2023-03-24T12:14:26.092Z,72.77
2023-03-24T12:18:38.977Z,71.37
2023-03-24T12:22:49.604Z,69.53
2023-03-24T12:26:58.175Z,68.91
2023-03-24T12:31:11.466Z,63.14
2023-03-24T12:35:30.121Z,61.98
2023-03-24T12:39:35.694Z,61.48
2023-03-24T12:43:47.068Z,60.67
2023-03-24T12:48:11.790Z,57.69
2023-03-24T12:52:28.978Z,55.35
2023-03-24T12:56:35.204Z,50.60
2023-03-24T13:00:40.910Z,54.23
2023-03-24T13:04:48.508Z,55.98
2023-03-24T13:09:05.191Z,56.92
2023-03-24T13:13:12.550Z,57.05
2023-03-24T13:17:20.009Z,55.07
2023-03-24T13:21:26.110Z,55.97
2023-03-24T13:25:33.448Z,56.93
2023-03-24T13:30:05.089Z,60.38
2023-03-24T13:34:18.272Z,54.91
2023-03-24T13:38:27.861Z,56.64
2023-03-24T13:42:33.623Z,54.19
2023-03-24T13:46:38.338Z,55.07
2023-03-24T13:50:51.463Z,55.57
2023-03-24T13:54:58.290Z,54.88
2023-03-24T13:59:25.048Z,53.67
2023-03-24T14:03:33.938Z,53.98
2023-03-24T14:07:48.487Z,54.79
2023-03-24T14:12:17.933Z,52.28
2023-03-24T14:16:51.974Z,54.30
2023-03-24T14:21:01.964Z,55.69
2023-03-24T14:25:08.719Z,56.54
2023-03-24T14:29:37.431Z,56.05
2023-03-24T14:33:41.196Z,54.38
2023-03-24T14:37:51.403Z,55.42
2023-03-24T14:41:55.111Z,51.42
2023-03-24T14:46:39.526Z,55.03
2023-03-24T14:50:42.369Z,54.71
2023-03-24T14:54:47.421Z,54.90
2023-03-24T14:58:52.258Z,53.49
2023-03-24T15:02:58.549Z,57.61
2023-03-24T15:07:04.948Z,55.04
2023-03-24T15:11:09.320Z,55.39
2023-03-24T15:15:16.742Z,56.46
2023-03-24T15:19:23.471Z,57.75
2023-03-24T15:23:28.190Z,57.91
2023-03-24T15:27:33.437Z,60.13
2023-03-24T15:31:37.968Z,59.17
2023-03-24T15:35:44.370Z,58.08
2023-03-24T15:39:51.216Z,54.80
2023-03-24T15:43:55.620Z,54.99
2023-03-24T15:47:59.358Z,57.27
2023-03-24T15:52:07.414Z,55.30
2023-03-24T15:56:19.261Z,55.38
2023-03-24T16:00:26.006Z,60.11
2023-03-24T16:04:30.168Z,60.79
2023-03-24T16:08:39.314Z,61.12
2023-03-24T16:12:42.137Z,59.30
2023-03-24T16:16:45.206Z,57.48
2023-03-24T16:20:48.234Z,58.61
2023-03-24T16:24:53.317Z,55.63
2023-03-24T16:28:57.997Z,57.98
2023-03-24T16:33:00.690Z,59.00
2023-03-24T16:37:04.310Z,59.24
2023-03-24T16:41:11.998Z,60.91
2023-03-24T16:45:14.865Z,58.96
2023-03-24T16:49:19.789Z,61.67
2023-03-24T16:53:22.587Z,61.78
2023-03-24T16:57:26.863Z,62.83
2023-03-24T17:01:33.907Z,60.78
2023-03-24T17:05:41.397Z,60.53
2023-03-24T17:09:44.686Z,61.33
2023-03-24T17:13:49.091Z,59.85
2023-03-24T17:17:52.441Z,60.54
2023-03-24T17:21:59.566Z,61.47
2023-03-24T17:26:02.218Z,58.10
2023-03-24T17:30:08.012Z,58.81
2023-03-24T17:38:23.623Z,59.26
2023-03-24T17:42:27.414Z,79.76
2023-03-24T17:46:31.607Z,82.91
2023-03-24T17:50:34.446Z,84.82
2023-03-24T17:54:37.314Z,83.42
2023-03-24T17:58:40.139Z,84.17
2023-03-24T18:02:44.775Z,84.96
2023-03-24T18:06:47.848Z,86.25
2023-03-24T18:10:51.101Z,86.90
2023-03-24T18:14:54.104Z,86.98
2023-03-24T18:19:00.710Z,87.81
2023-03-24T18:23:04.482Z,88.11
2023-03-24T18:27:09.854Z,92.53
2023-03-24T18:31:15.401Z,91.07
2023-03-24T18:35:19.838Z,92.49
2023-03-24T18:39:22.763Z,91.05
2023-03-24T18:43:25.825Z,92.48
2023-03-24T18:47:28.775Z,92.42
2023-03-24T18:51:33.553Z,92.92
2023-03-24T18:55:36.464Z,90.79
2023-03-24T18:59:39.411Z,94.08
2023-03-24T19:03:44.146Z,93.39
2023-03-24T19:07:52.070Z,91.95
2023-03-24T19:11:54.834Z,94.22
2023-03-24T19:15:57.599Z,93.00
2023-03-24T19:20:00.682Z,95.05
2023-03-24T19:24:04.944Z,95.86
2023-03-24T19:28:07.780Z,95.30
2023-03-24T19:32:11.235Z,95.21
2023-03-24T19:36:15.573Z,92.31
2023-03-24T19:40:20.209Z,90.06
2023-03-24T19:44:23.403Z,89.16
2023-03-24T19:48:26.486Z,87.13
2023-03-24T19:52:29.437Z,87.39
2023-03-24T19:56:33.526Z,87.36
2023-03-24T20:00:37.088Z,85.57
2023-03-24T20:04:39.975Z,84.63
2023-03-24T20:08:43.131Z,84.19
2023-03-24T20:12:47.167Z,84.16
2023-03-24T20:16:50.258Z,81.84
2023-03-24T20:20:56.016Z,81.90
2023-03-24T20:25:00.455Z,83.42
2023-03-24T20:29:05.292Z,84.85
2023-03-24T20:33:08.269Z,83.03
2023-03-24T20:37:11.305Z,83.62
2023-03-24T20:41:14.175Z,82.11
2023-03-24T20:45:18.691Z,84.45
2023-03-24T20:49:21.910Z,83.27
2023-03-24T20:53:25.036Z,83.24
2023-03-24T20:57:28.688Z,84.61
2023-03-24T21:01:36.085Z,83.43
2023-03-24T21:05:39.124Z,84.05
2023-03-24T21:09:41.899Z,83.47
2023-03-24T21:13:44.807Z,83.70
2023-03-24T21:17:49.358Z,84.58
2023-03-24T21:21:54.219Z,83.68
2023-03-24T21:25:57.732Z,84.94
2023-03-24T21:30:00.987Z,83.00
2023-03-24T21:34:06.357Z,83.36
2023-03-24T21:38:11.071Z,82.10
2023-03-24T21:42:15.393Z,83.35
2023-03-24T21:46:21.765Z,83.71
2023-03-24T21:50:29.383Z,85.29
2023-03-24T21:54:33.323Z,84.69
2023-03-24T21:58:36.573Z,85.79
2023-03-24T22:02:40.168Z,88.48
2023-03-24T22:06:47.971Z,89.18
2023-03-24T22:10:54.442Z,88.71
2023-03-24T22:14:58.162Z,89.82
2023-03-24T22:19:03.076Z,89.91
2023-03-24T22:23:10.730Z,89.09
2023-03-24T22:27:19.264Z,89.10
2023-03-24T22:31:23.274Z,89.10
2023-03-24T22:35:26.433Z,89.60
2023-03-24T22:39:35.472Z,89.24
2023-03-24T22:43:39.638Z,89.25
2023-03-24T22:47:42.581Z,88.98
2023-03-24T22:51:45.646Z,88.05
2023-03-24T22:55:50.474Z,89.18
2023-03-24T22:59:53.665Z,90.02
2023-03-24T23:03:56.518Z,88.50
2023-03-24T23:08:02.715Z,88.89
2023-03-24T23:12:08.075Z,88.05
2023-03-24T23:16:11.330Z,89.53
2023-03-24T23:20:15.819Z,88.53
2023-03-24T23:24:21.431Z,88.42
2023-03-24T23:28:28.789Z,87.96
2023-03-24T23:32:33.733Z,88.45
2023-03-24T23:36:39.278Z,89.03
2023-03-24T23:40:42.512Z,88.06
2023-03-24T23:44:47.133Z,88.81
2023-03-24T23:48:51.066Z,88.97
2023-03-24T23:52:58.427Z,89.66
2023-03-24T23:57:01.555Z,89.55
